Time;durP1;ratioP1;P1;durP2;ratioP2;P2;SDS_P1;SDS_P2;PMS_P1;PMS_P2;Temp;Humidity;BMP_temperature;BMP_pressure;BME280_temperature;BME280_humidity;BME280_pressure;Samples;Min_cycle;Max_cycle;Signal;HPM_P1;HPM_P2
2022/03/07 00:00:47;;;;;;;11.90;8.70;;;1.00;32.30;;;;;;5004644;28;20550;-52
2022/03/07 00:03:16;;;;;;;11.70;8.40;;;1.00;34.00;;;;;;5002425;28;20479;-51
2022/03/07 00:05:43;;;;;;;10.07;8.47;;;1.00;27.20;;;;;;5000308;28;20602;-51
2022/03/07 00:08:09;;;;;;;10.73;9.17;;;1.00;27.40;;;;;;5005578;28;20498;-52
2022/03/07 00:10:36;;;;;;;9.30;8.40;;;0.90;26.10;;;;;;5011026;28;20496;-52
2022/03/07 00:13:03;;;;;;;14.53;8.20;;;0.80;75.20;;;;;;5012391;28;20879;-52
2022/03/07 00:15:30;;;;;;;11.10;9.70;;;0.80;21.40;;;;;;5010483;28;20447;-52
2022/03/07 00:17:56;;;;;;;10.37;8.63;;;0.80;73.70;;;;;;4997537;28;20440;-51
2022/03/07 00:20:25;;;;;;;13.17;7.70;;;0.70;22.50;;;;;;5009944;28;20464;-53
2022/03/07 00:22:51;;;;;;;10.00;8.30;;;0.70;21.10;;;;;;5011758;28;20502;-52
2022/03/07 00:25:18;;;;;;;10.07;7.10;;;0.70;22.30;;;;;;5011787;28;20515;-51
2022/03/07 00:27:45;;;;;;;10.03;7.77;;;0.70;24.30;;;;;;5003674;28;20988;-52
2022/03/07 00:30:12;;;;;;;9.43;8.37;;;0.70;23.00;;;;;;5009053;28;20499;-52
2022/03/07 00:32:39;;;;;;;10.83;8.77;;;0.60;79.20;;;;;;5005250;28;20506;-51
2022/03/07 00:35:06;;;;;;;9.00;8.20;;;0.50;99.90;;;;;;5007653;28;20976;-52
2022/03/07 00:37:34;;;;;;;8.47;7.63;;;0.40;99.90;;;;;;5010889;28;20503;-52
2022/03/07 00:40:00;;;;;;;10.70;8.83;;;0.30;99.90;;;;;;5011774;28;20888;-51
2022/03/07 00:42:27;;;;;;;10.73;8.43;;;0.20;99.90;;;;;;5000624;28;20596;-52
2022/03/07 00:44:53;;;;;;;9.43;7.83;;;0.10;99.90;;;;;;5002164;28;20919;-52
2022/03/07 00:47:20;;;;;;;8.60;7.70;;;0.10;99.90;;;;;;5004106;28;21133;-52
2022/03/07 00:49:46;;;;;;;9.50;8.13;;;0.00;99.90;;;;;;5009730;28;20499;-52
2022/03/07 00:52:13;;;;;;;10.17;8.33;;;0.00;99.90;;;;;;5005460;28;20513;-51
2022/03/07 00:54:41;;;;;;;13.70;8.13;;;-0.10;99.90;;;;;;5011155;28;20467;-53
2022/03/07 00:57:07;;;;;;;11.00;7.83;;;0.00;99.90;;;;;;5011717;28;20483;-52
2022/03/07 00:59:34;;;;;;;10.70;7.80;;;-0.10;99.90;;;;;;5011384;28;20472;-53
2022/03/07 01:02:00;;;;;;;13.07;8.03;;;-0.10;99.90;;;;;;5006246;28;20507;-52
2022/03/07 01:04:27;;;;;;;13.20;7.97;;;0.00;99.90;;;;;;5009143;28;20487;-52
2022/03/07 01:06:54;;;;;;;13.27;8.13;;;0.10;99.90;;;;;;5011629;28;20471;-52
2022/03/07 01:09:20;;;;;;;7.77;6.87;;;0.10;99.90;;;;;;5009903;28;20495;-52
2022/03/07 01:11:48;;;;;;;8.23;7.40;;;0.20;99.90;;;;;;5013440;28;20518;-52
2022/03/07 01:14:15;;;;;;;12.67;8.83;;;0.20;99.90;;;;;;5007991;28;20902;-51
2022/03/07 01:16:42;;;;;;;12.50;9.17;;;0.20;99.90;;;;;;5006611;28;20506;-51
2022/03/07 01:19:08;;;;;;;15.87;10.03;;;0.10;99.90;;;;;;5010498;28;20506;-52
2022/03/07 01:21:35;;;;;;;12.17;8.93;;;0.20;99.90;;;;;;5008417;28;20510;-52
2022/03/07 01:24:01;;;;;;;10.43;9.30;;;0.30;99.90;;;;;;5005682;28;20526;-52
2022/03/07 01:26:28;;;;;;;13.53;9.83;;;0.30;99.90;;;;;;5003981;28;21031;-52
2022/03/07 01:28:56;;;;;;;16.77;11.07;;;0.30;99.90;;;;;;5010184;28;20965;-52
2022/03/07 01:31:22;;;;;;;11.97;10.67;;;0.30;99.90;;;;;;5010498;28;20491;-52
2022/03/07 01:33:49;;;;;;;12.60;9.33;;;0.30;99.90;;;;;;5010095;28;20511;-52
2022/03/07 01:36:16;;;;;;;15.10;10.03;;;0.40;99.90;;;;;;5009989;28;20482;-51
2022/03/07 01:38:42;;;;;;;14.13;10.60;;;0.40;99.90;;;;;;5008690;28;20491;-52
2022/03/07 01:41:09;;;;;;;17.23;9.67;;;0.30;99.90;;;;;;5010603;28;20495;-52
2022/03/07 01:43:35;;;;;;;11.77;9.27;;;0.20;99.90;;;;;;5009340;28;20511;-52
2022/03/07 01:46:03;;;;;;;12.40;8.80;;;0.10;99.90;;;;;;5009956;28;20596;-52
2022/03/07 01:48:30;;;;;;;14.07;9.03;;;0.00;99.90;;;;;;5010903;28;20464;-52
2022/03/07 01:50:57;;;;;;;10.40;9.17;;;-0.10;99.90;;;;;;5010037;28;20463;-51
2022/03/07 01:53:23;;;;;;;14.70;9.63;;;-0.20;99.90;;;;;;5007703;28;20515;-52
2022/03/07 01:55:50;;;;;;;10.93;9.20;;;-0.20;99.90;;;;;;5009635;28;20999;-51
2022/03/07 01:58:16;;;;;;;13.00;9.33;;;-0.20;99.90;;;;;;5006020;28;20510;-53
2022/03/07 02:00:43;;;;;;;12.67;9.10;;;-0.30;99.90;;;;;;5008308;28;20491;-51
2022/03/07 02:03:11;;;;;;;10.07;9.00;;;-0.40;99.90;;;;;;5003901;28;20582;-53
2022/03/07 02:05:38;;;;;;;10.33;8.40;;;-0.50;99.90;;;;;;5010232;28;20484;-52
2022/03/07 02:08:05;;;;;;;12.93;8.83;;;-0.60;99.90;;;;;;5009041;28;20464;-53
2022/03/07 02:10:31;;;;;;;9.53;8.50;;;-0.60;99.90;;;;;;5013930;28;20504;-53
2022/03/07 02:12:58;;;;;;;10.60;8.60;;;-0.70;99.90;;;;;;5008031;28;20523;-53
2022/03/07 02:15:24;;;;;;;9.80;8.43;;;-0.70;99.90;;;;;;5011387;28;20499;-52
2022/03/07 02:17:51;;;;;;;9.93;8.33;;;-0.70;99.90;;;;;;5011063;28;20484;-53
2022/03/07 02:20:19;;;;;;;9.73;8.43;;;-0.80;99.90;;;;;;5009742;28;20502;-53
2022/03/07 02:22:47;;;;;;;12.93;9.07;;;-0.80;99.90;;;;;;5005257;28;20503;-52
2022/03/07 02:25:13;;;;;;;9.20;8.30;;;-0.80;99.90;;;;;;5006552;28;21072;-52
2022/03/07 02:27:40;;;;;;;12.90;8.27;;;-0.90;99.90;;;;;;5008926;28;20495;-52
2022/03/07 02:30:08;;;;;;;11.30;8.63;;;-0.80;99.90;;;;;;5010054;28;20546;-52
2022/03/07 02:32:34;;;;;;;10.73;8.70;;;-0.70;99.90;;;;;;5009797;28;20523;-52
2022/03/07 02:35:01;;;;;;;13.80;7.60;;;-0.60;99.90;;;;;;5006926;28;20510;-52
2022/03/07 02:37:28;;;;;;;8.83;7.80;;;-0.70;99.90;;;;;;5009974;28;20460;-52
2022/03/07 02:39:56;;;;;;;10.30;8.17;;;-0.60;99.90;;;;;;5005177;28;20495;-52
2022/03/07 02:42:22;;;;;;;8.80;7.70;;;-0.70;99.90;;;;;;5002201;28;20488;-52
2022/03/07 02:44:49;;;;;;;10.37;8.10;;;-0.70;99.90;;;;;;5010411;28;20530;-52
2022/03/07 02:47:15;;;;;;;10.13;7.00;;;-0.70;99.90;;;;;;5014112;28;20495;-52
2022/03/07 02:49:42;;;;;;;9.00;7.53;;;-0.70;99.90;;;;;;5008134;28;20468;-52
2022/03/07 02:52:09;;;;;;;12.70;8.37;;;-0.70;99.90;;;;;;5012698;28;20574;-52
2022/03/07 02:54:36;;;;;;;12.03;7.07;;;-0.70;99.90;;;;;;5012900;28;20530;-52
2022/03/07 02:57:04;;;;;;;7.90;7.03;;;-0.70;99.90;;;;;;5014057;28;20475;-52
2022/03/07 02:59:31;;;;;;;10.00;7.53;;;-0.70;99.90;;;;;;4999755;28;20555;-53
2022/03/07 03:01:58;;;;;;;9.70;7.13;;;-0.60;99.90;;;;;;5012527;28;21096;-52
2022/03/07 03:04:24;;;;;;;10.20;7.60;;;-0.50;99.90;;;;;;5013232;28;20486;-52
2022/03/07 03:06:51;;;;;;;9.37;8.33;;;-0.50;99.90;;;;;;5006469;28;20492;-53
2022/03/07 03:09:18;;;;;;;8.97;7.70;;;-0.40;99.90;;;;;;5009727;28;20456;-52
2022/03/07 03:11:44;;;;;;;8.43;7.63;;;-0.40;99.90;;;;;;5013486;28;20508;-52
2022/03/07 03:14:12;;;;;;;8.20;7.40;;;-0.30;99.90;;;;;;5013270;28;20538;-52
2022/03/07 03:16:39;;;;;;;8.00;6.33;;;-0.30;99.90;;;;;;5012995;28;20542;-52
2022/03/07 03:19:05;;;;;;;9.70;6.93;;;-0.20;99.90;;;;;;5009488;28;21016;-52
2022/03/07 03:21:32;;;;;;;8.13;7.30;;;-0.20;99.90;;;;;;5012413;28;20526;-51
2022/03/07 03:23:58;;;;;;;7.83;7.10;;;-0.30;99.90;;;;;;5011644;28;20530;-52
2022/03/07 03:26:25;;;;;;;7.43;6.73;;;-0.30;99.90;;;;;;5013127;28;20486;-52
2022/03/07 03:28:52;;;;;;;9.30;6.80;;;-0.30;99.90;;;;;;5010588;28;21017;-52
2022/03/07 03:31:19;;;;;;;6.43;5.83;;;-0.40;99.90;;;;;;5013530;28;20476;-52
2022/03/07 03:33:46;;;;;;;6.67;6.07;;;-0.40;99.90;;;;;;5012577;28;20554;-49
2022/03/07 03:36:13;;;;;;;11.93;5.77;;;-0.50;99.90;;;;;;5011879;28;20507;-49
2022/03/07 03:38:39;;;;;;;6.57;5.93;;;-0.50;99.90;;;;;;5007368;28;20981;-49
2022/03/07 03:41:06;;;;;;;8.20;6.43;;;-0.50;99.90;;;;;;5007149;28;21023;-49
2022/03/07 03:43:32;;;;;;;8.30;6.27;;;-0.50;99.90;;;;;;5010943;28;21079;-49
2022/03/07 03:45:59;;;;;;;11.13;6.97;;;-0.60;99.90;;;;;;5012475;28;20558;-50
2022/03/07 03:48:27;;;;;;;6.93;6.23;;;-0.60;99.90;;;;;;5011097;28;20930;-49
2022/03/07 03:50:53;;;;;;;7.33;6.20;;;-0.70;99.90;;;;;;5004895;28;20498;-50
2022/03/07 03:53:20;;;;;;;6.97;6.37;;;-0.70;99.90;;;;;;5012139;28;20511;-50
2022/03/07 03:55:46;;;;;;;7.47;6.60;;;-0.80;99.90;;;;;;5007548;28;20483;-50
2022/03/07 03:58:13;;;;;;;8.27;6.13;;;-0.80;99.90;;;;;;5007555;28;20482;-49
2022/03/07 04:00:40;;;;;;;7.00;6.10;;;-0.90;99.90;;;;;;5007981;28;20459;-49
2022/03/07 04:03:06;;;;;;;7.30;6.20;;;-0.90;99.90;;;;;;5006104;28;20514;-49
2022/03/07 04:05:34;;;;;;;6.47;5.87;;;-1.00;99.90;;;;;;5011119;28;20885;-50
2022/03/07 04:08:01;;;;;;;7.87;5.93;;;-1.00;99.90;;;;;;5007289;28;20491;-50
2022/03/07 04:10:28;;;;;;;6.30;5.70;;;-1.00;99.90;;;;;;5010206;28;20522;-49
2022/03/07 04:12:54;;;;;;;7.70;5.97;;;-1.10;99.90;;;;;;5010218;28;20571;-50
2022/03/07 04:15:21;;;;;;;6.40;5.80;;;-1.20;99.90;;;;;;5011177;28;20498;-49
2022/03/07 04:17:49;;;;;;;6.67;6.00;;;-1.10;99.90;;;;;;5004636;28;20471;-50
2022/03/07 04:20:16;;;;;;;7.00;6.30;;;-1.20;99.90;;;;;;5011705;28;20510;-50
2022/03/07 04:22:43;;;;;;;7.13;6.50;;;-1.20;99.90;;;;;;5012147;28;20920;-49
2022/03/07 04:25:11;;;;;;;7.20;6.40;;;-1.20;99.90;;;;;;5009919;28;21292;-50
2022/03/07 04:27:38;;;;;;;8.43;6.60;;;-1.30;99.90;;;;;;5010618;28;20502;-50
2022/03/07 04:30:07;;;;;;;8.90;6.20;;;-1.30;99.90;;;;;;5008923;28;20466;-49
2022/03/07 04:32:36;;;;;;;6.87;5.80;;;-1.30;99.90;;;;;;5007919;28;21581;-49
2022/03/07 04:35:05;;;;;;;7.27;6.03;;;-1.40;99.90;;;;;;5010376;28;20464;-50
2022/03/07 04:37:32;;;;;;;7.80;6.67;;;-1.40;99.90;;;;;;5009961;28;20525;-50
2022/03/07 04:40:00;;;;;;;8.00;6.17;;;-1.50;99.90;;;;;;5003390;28;20507;-49
2022/03/07 04:42:27;;;;;;;6.10;5.53;;;-1.40;99.90;;;;;;5009619;28;20659;-50
2022/03/07 04:44:54;;;;;;;10.90;6.57;;;-1.50;99.90;;;;;;5008559;28;20863;-49
2022/03/07 04:47:20;;;;;;;7.73;5.23;;;-1.50;99.90;;;;;;5010310;28;20498;-50
2022/03/07 04:49:47;;;;;;;6.03;5.47;;;-1.50;99.90;;;;;;5002096;28;20555;-50
2022/03/07 04:52:13;;;;;;;5.97;5.47;;;-1.50;99.90;;;;;;5009862;28;20566;-49
2022/03/07 04:54:40;;;;;;;13.83;5.87;;;-1.50;99.90;;;;;;5010386;28;20495;-49
2022/03/07 04:57:08;;;;;;;6.90;5.90;;;-1.40;99.90;;;;;;5004049;28;20502;-49
2022/03/07 04:59:34;;;;;;;6.57;5.97;;;-1.40;99.90;;;;;;5010500;28;20542;-49
2022/03/07 05:02:01;;;;;;;6.53;5.93;;;-1.50;99.90;;;;;;5011462;28;20529;-49
2022/03/07 05:04:28;;;;;;;6.10;5.60;;;-1.50;99.90;;;;;;5010691;28;20512;-50
2022/03/07 05:06:54;;;;;;;6.00;5.23;;;-1.50;99.90;;;;;;5006887;28;20571;-50
2022/03/07 05:09:21;;;;;;;9.30;5.93;;;-1.50;99.90;;;;;;5005638;28;20456;-49
2022/03/07 05:11:47;;;;;;;6.13;5.53;;;-1.50;99.90;;;;;;5010883;28;20539;-50
2022/03/07 05:14:15;;;;;;;6.40;5.80;;;-1.50;99.90;;;;;;5011939;28;20444;-50
2022/03/07 05:16:42;;;;;;;6.30;5.80;;;-1.40;99.90;;;;;;5011334;28;20483;-49
2022/03/07 05:19:08;;;;;;;6.07;5.37;;;-1.40;99.90;;;;;;5011534;28;20475;-50
2022/03/07 05:21:35;;;;;;;6.60;5.90;;;-1.40;99.90;;;;;;5011446;28;20498;-50
2022/03/07 05:24:01;;;;;;;11.80;6.30;;;-1.40;99.90;;;;;;5011664;28;20534;-50
2022/03/07 05:26:28;;;;;;;7.50;6.80;;;-1.50;99.90;;;;;;5011875;28;20544;-50
2022/03/07 05:28:55;;;;;;;11.37;6.53;;;-1.60;99.90;;;;;;5007340;28;20882;-50
2022/03/07 05:31:22;;;;;;;7.77;6.40;;;-1.70;99.90;;;;;;5011591;28;20539;-49
2022/03/07 05:33:50;;;;;;;6.87;5.70;;;-1.70;99.90;;;;;;5009977;28;20467;-48
2022/03/07 05:36:17;;;;;;;8.13;5.77;;;-1.70;99.90;;;;;;5006793;28;20957;-48
2022/03/07 05:38:43;;;;;;;8.30;6.70;;;-1.70;99.90;;;;;;5008381;28;20539;-49
2022/03/07 05:41:10;;;;;;;9.93;6.17;;;-1.70;99.90;;;;;;5007621;28;20566;-49
2022/03/07 05:43:36;;;;;;;7.17;6.47;;;-1.80;99.90;;;;;;5012952;28;20487;-49
2022/03/07 05:46:03;;;;;;;8.27;5.87;;;-1.80;99.90;;;;;;5014479;28;20566;-49
2022/03/07 05:48:31;;;;;;;8.03;6.57;;;-1.80;99.90;;;;;;5014892;28;20530;-49
2022/03/07 05:50:57;;;;;;;6.90;6.20;;;-1.80;99.90;;;;;;5012960;28;20559;-49
2022/03/07 05:53:24;;;;;;;9.10;6.60;;;-1.80;99.90;;;;;;5014874;28;20491;-49
2022/03/07 05:55:51;;;;;;;9.23;7.50;;;-1.80;99.90;;;;;;5013104;28;20464;-49
2022/03/07 05:58:19;;;;;;;7.00;6.33;;;-1.80;99.90;;;;;;5005244;28;20496;-49
2022/03/07 06:00:45;;;;;;;8.20;7.47;;;-1.80;99.90;;;;;;5011304;28;20510;-54
2022/03/07 06:03:12;;;;;;;8.70;7.80;;;-1.80;99.90;;;;;;5012495;28;20510;-49
2022/03/07 06:05:41;;;;;;;8.60;6.77;;;-1.80;99.90;;;;;;5006002;28;20567;-48
2022/03/07 06:08:07;;;;;;;8.37;7.57;;;-1.70;99.90;;;;;;5007130;28;20522;-49
2022/03/07 06:10:34;;;;;;;8.80;6.93;;;-1.70;99.90;;;;;;5008995;28;20517;-50
2022/03/07 06:13:01;;;;;;;8.30;6.83;;;-1.70;99.90;;;;;;5008451;28;20488;-49
2022/03/07 06:15:28;;;;;;;9.07;6.93;;;-1.70;99.90;;;;;;5008147;28;20455;-49
2022/03/07 06:17:55;;;;;;;8.17;7.37;;;-1.70;99.90;;;;;;5007127;28;20462;-50
2022/03/07 06:20:24;;;;;;;10.43;6.03;;;-1.60;99.90;;;;;;5008190;28;20525;-49
2022/03/07 06:22:52;;;;;;;7.90;6.90;;;-1.60;99.90;;;;;;5008089;28;20501;-50
2022/03/07 06:25:19;;;;;;;8.97;7.20;;;-1.50;99.90;;;;;;5014317;28;20513;-50
2022/03/07 06:27:46;;;;;;;7.00;6.33;;;-1.50;99.90;;;;;;5012997;28;20840;-50
2022/03/07 06:30:13;;;;;;;10.97;6.80;;;-1.50;99.90;;;;;;5013651;28;20803;-49
2022/03/07 06:32:39;;;;;;;9.07;7.13;;;-1.40;99.90;;;;;;5009831;28;20479;-49
2022/03/07 06:35:06;;;;;;;7.67;6.97;;;-1.30;99.90;;;;;;5011710;28;20579;-49
2022/03/07 06:37:33;;;;;;;9.60;7.40;;;-1.20;99.90;;;;;;5012457;28;20909;-49
2022/03/07 06:40:01;;;;;;;10.97;7.70;;;-1.10;99.90;;;;;;5011988;28;20534;-50
2022/03/07 06:42:27;;;;;;;13.13;8.00;;;-1.00;99.90;;;;;;5011439;28;20511;-50
2022/03/07 06:44:54;;;;;;;11.87;8.10;;;-0.90;99.90;;;;;;5011243;28;20551;-50
2022/03/07 06:47:20;;;;;;;10.33;8.30;;;-0.80;99.90;;;;;;5005988;28;21088;-50
2022/03/07 06:49:51;;;;;;;20.30;8.33;;;-0.70;99.90;;;;;;5006546;28;20490;-49
2022/03/07 06:52:17;;;;;;;9.97;8.17;;;-0.40;99.90;;;;;;5010351;28;20479;-50
2022/03/07 06:54:44;;;;;;;10.70;8.30;;;-0.20;99.90;;;;;;5006951;28;20538;-50
2022/03/07 06:57:12;;;;;;;29.63;9.03;;;-0.10;99.90;;;;;;5012594;28;20508;-49
2022/03/07 06:59:38;;;;;;;8.50;7.60;;;-0.10;99.90;;;;;;5008380;28;20594;-49
2022/03/07 07:02:05;;;;;;;9.93;8.23;;;0.00;99.90;;;;;;5008928;28;20571;-49
2022/03/07 07:04:31;;;;;;;14.50;9.03;;;0.10;99.90;;;;;;5009595;28;20559;-51
2022/03/07 07:06:58;;;;;;;9.33;8.30;;;0.30;99.90;;;;;;5009993;28;20578;-49
2022/03/07 07:09:24;;;;;;;10.37;8.27;;;0.50;99.90;;;;;;5006937;28;20491;-50
2022/03/07 07:11:51;;;;;;;14.83;8.83;;;0.70;99.90;;;;;;5008737;28;21069;-52
2022/03/07 07:14:19;;;;;;;11.50;8.27;;;0.90;99.90;;;;;;5007859;28;20463;-49
2022/03/07 07:16:45;;;;;;;15.57;8.90;;;1.30;99.90;;;;;;5008694;28;20518;-50
2022/03/07 07:19:12;;;;;;;11.70;8.40;;;1.30;99.90;;;;;;5009271;28;20551;-50
2022/03/07 07:21:38;;;;;;;16.53;10.13;;;1.60;99.90;;;;;;5008975;28;20518;-49
2022/03/07 07:24:06;;;;;;;13.00;9.27;;;1.70;99.90;;;;;;5008842;28;20559;-50
2022/03/07 07:26:32;;;;;;;11.23;9.97;;;1.60;99.90;;;;;;5006753;28;21061;-49
2022/03/07 07:28:59;;;;;;;12.43;10.90;;;1.60;99.90;;;;;;5008063;28;20839;-49
2022/03/07 07:31:27;;;;;;;14.87;10.43;;;1.70;99.90;;;;;;5010173;28;20558;-49
2022/03/07 07:33:53;;;;;;;11.93;10.67;;;1.60;99.90;;;;;;5006736;28;20571;-50
2022/03/07 07:36:20;;;;;;;22.63;11.80;;;1.30;99.90;;;;;;5010537;28;20495;-50
2022/03/07 07:38:46;;;;;;;15.10;10.20;;;1.50;99.90;;;;;;5008439;28;20487;-50
2022/03/07 07:41:13;;;;;;;12.70;9.70;;;1.70;99.90;;;;;;5005704;28;20562;-49
2022/03/07 07:43:39;;;;;;;19.43;9.87;;;1.80;99.90;;;;;;5009963;28;20511;-49
2022/03/07 07:46:06;;;;;;;24.70;10.17;;;2.00;99.90;;;;;;5009004;28;20522;-50
2022/03/07 07:48:34;;;;;;;11.87;8.80;;;2.10;99.90;;;;;;5010262;28;20911;-50
2022/03/07 07:51:00;;;;;;;18.73;11.07;;;2.20;99.90;;;;;;5008474;28;20495;-49
2022/03/07 07:53:27;;;;;;;12.10;9.50;;;2.30;99.90;;;;;;5006417;28;20671;-49
2022/03/07 07:55:53;;;;;;;16.57;9.43;;;2.70;99.90;;;;;;5010375;28;20475;-49
2022/03/07 07:58:20;;;;;;;12.60;9.70;;;3.10;99.90;;;;;;5010455;28;21028;-48
2022/03/07 08:00:46;;;;;;;17.60;9.93;;;3.50;30.90;;;;;;5011051;28;20527;-49
2022/03/07 08:03:13;;;;;;;18.50;8.13;;;3.80;35.40;;;;;;5008323;28;20511;-49
2022/03/07 08:05:45;;;;;;;9.77;8.73;;;3.70;47.40;;;;;;5008083;28;20555;-48
2022/03/07 08:08:11;;;;;;;12.87;9.30;;;4.00;46.70;;;;;;5008894;28;20483;-49
2022/03/07 08:10:38;;;;;;;9.83;8.10;;;3.90;53.30;;;;;;5004526;28;20550;-49
2022/03/07 08:13:05;;;;;;;11.73;8.83;;;3.90;64.50;;;;;;5009189;28;21357;-50
2022/03/07 08:15:31;;;;;;;10.80;8.90;;;4.10;65.60;;;;;;5005336;28;20556;-49
2022/03/07 08:17:58;;;;;;;11.63;9.20;;;4.60;74.10;;;;;;5009329;28;20599;-50
2022/03/07 08:20:25;;;;;;;13.60;8.87;;;4.80;80.70;;;;;;5007656;28;20494;-49
2022/03/07 08:22:53;;;;;;;12.83;9.10;;;4.70;84.90;;;;;;5010701;28;20530;-49
2022/03/07 08:25:21;;;;;;;15.43;9.23;;;4.30;81.00;;;;;;5008681;28;20499;-49
2022/03/07 08:27:48;;;;;;;10.10;8.20;;;4.60;93.90;;;;;;5007937;28;20480;-50
2022/03/07 08:30:16;;;;;;;8.97;8.10;;;4.80;91.40;;;;;;5006046;28;20551;-49
2022/03/07 08:32:43;;;;;;;12.37;8.00;;;4.90;94.00;;;;;;5007639;28;20519;-49
2022/03/07 08:35:11;;;;;;;10.13;7.77;;;4.80;96.00;;;;;;5007753;28;20460;-51
2022/03/07 08:37:38;;;;;;;9.13;7.30;;;4.70;93.30;;;;;;5008072;28;20466;-49
2022/03/07 08:40:08;;;;;;;7.80;7.10;;;5.30;99.90;;;;;;5006120;28;20564;-50
2022/03/07 08:42:35;;;;;;;8.10;7.37;;;5.10;99.90;;;;;;5009400;28;20485;-49
2022/03/07 08:45:02;;;;;;;7.13;6.53;;;4.70;99.90;;;;;;5006125;28;20506;-50
2022/03/07 08:47:28;;;;;;;8.03;6.60;;;5.00;99.90;;;;;;5006810;28;20519;-49
2022/03/07 08:49:56;;;;;;;7.73;7.03;;;4.90;99.90;;;;;;5007525;28;21036;-49
2022/03/07 08:52:22;;;;;;;6.47;5.97;;;4.90;99.90;;;;;;5006125;28;20487;-49
2022/03/07 08:54:49;;;;;;;10.77;7.17;;;4.90;99.90;;;;;;5007494;28;20555;-49
2022/03/07 08:57:17;;;;;;;7.70;6.90;;;4.70;99.90;;;;;;5010924;28;20497;-49
2022/03/07 08:59:44;;;;;;;15.00;7.17;;;4.80;99.90;;;;;;5002311;28;20599;-49
2022/03/07 09:02:10;;;;;;;6.93;6.37;;;4.80;99.90;;;;;;5005666;28;20579;-49
2022/03/07 09:04:37;;;;;;;16.57;7.33;;;5.60;99.90;;;;;;4999845;28;20470;-49
2022/03/07 09:07:04;;;;;;;8.10;7.40;;;5.80;99.90;;;;;;5000387;28;20589;-49
2022/03/07 09:09:31;;;;;;;8.57;7.77;;;5.90;99.90;;;;;;5004176;28;20591;-49
2022/03/07 09:11:57;;;;;;;7.87;7.00;;;6.60;99.90;;;;;;4998945;28;20571;-49
2022/03/07 09:14:25;;;;;;;8.83;7.97;;;5.90;99.90;;;;;;5003239;28;20506;-49
2022/03/07 09:16:52;;;;;;;7.03;6.53;;;6.80;99.90;;;;;;4998171;28;20506;-49
2022/03/07 09:19:18;;;;;;;8.23;7.43;;;7.00;99.90;;;;;;5010994;28;20550;-49
2022/03/07 09:21:45;;;;;;;8.00;7.30;;;6.60;99.90;;;;;;5009322;28;20570;-49
2022/03/07 09:24:12;;;;;;;9.10;8.20;;;5.90;99.90;;;;;;5011216;28;20596;-49
2022/03/07 09:26:39;;;;;;;9.47;8.47;;;6.80;99.90;;;;;;5011235;28;20595;-50
2022/03/07 09:29:05;;;;;;;8.17;7.40;;;6.30;99.90;;;;;;5010754;28;20448;-49
2022/03/07 09:31:33;;;;;;;10.07;8.20;;;6.50;99.90;;;;;;5011986;28;20618;-49
2022/03/07 09:34:00;;;;;;;9.03;8.20;;;6.80;99.90;;;;;;5028312;22;21093;-49
2022/03/07 09:36:26;;;;;;;8.70;7.90;;;6.70;99.90;;;;;;5027893;28;20553;-50
2022/03/07 09:38:53;;;;;;;8.83;7.97;;;7.80;99.90;;;;;;5029559;28;20483;-49
2022/03/07 09:41:20;;;;;;;9.23;8.30;;;7.70;99.90;;;;;;5016760;28;20447;-49
2022/03/07 09:43:47;;;;;;;9.97;7.63;;;7.90;99.90;;;;;;5015789;28;20475;-49
2022/03/07 09:46:14;;;;;;;7.03;6.40;;;8.60;99.90;;;;;;5011367;28;20952;-49
2022/03/07 09:48:43;;;;;;;8.33;7.53;;;7.80;99.90;;;;;;4996605;28;20847;-49
2022/03/07 09:51:10;;;;;;;13.00;7.63;;;7.50;99.90;;;;;;5008465;28;20482;-50
2022/03/07 09:53:36;;;;;;;8.63;7.77;;;8.20;99.90;;;;;;5015455;28;20535;-49
2022/03/07 09:56:05;;;;;;;7.70;6.90;;;7.80;99.90;;;;;;5015654;28;20471;-49
2022/03/07 09:58:32;;;;;;;9.07;8.10;;;7.40;99.90;;;;;;5009651;28;20452;-49
2022/03/07 10:01:07;;;;;;;13.63;8.30;;;8.00;99.90;;;;;;5002110;28;20540;-49
2022/03/07 10:03:34;;;;;;;9.63;7.70;;;8.30;99.90;;;;;;5000812;28;20659;-49
2022/03/07 10:06:11;;;;;;;8.77;7.87;;;7.80;99.90;;;;;;5000174;28;20475;-49
2022/03/07 10:08:37;;;;;;;10.40;8.33;;;8.00;99.90;;;;;;5001419;28;20483;-49
2022/03/07 10:11:08;;;;;;;7.87;6.83;;;8.20;99.90;;;;;;4999279;28;20482;-49
2022/03/07 10:13:35;;;;;;;8.27;7.47;;;8.40;99.90;;;;;;5009550;28;20543;-50
2022/03/07 10:16:05;;;;;;;9.70;8.80;;;8.70;99.90;;;;;;5002029;28;21015;-49
2022/03/07 10:18:32;;;;;;;10.90;8.30;;;8.60;99.90;;;;;;5014977;28;20539;-49
2022/03/07 10:21:04;;;;;;;8.67;7.87;;;8.40;99.90;;;;;;5001957;28;20452;-50
2022/03/07 10:23:31;;;;;;;9.53;8.43;;;10.00;99.90;;;;;;4997989;28;20453;-49
2022/03/07 10:26:08;;;;;;;7.07;6.47;;;8.90;99.90;;;;;;5013636;28;20471;-50
2022/03/07 10:28:36;;;;;;;7.80;7.10;;;8.50;99.90;;;;;;5009697;28;20569;-49
2022/03/07 10:31:13;;;;;;;8.57;7.20;;;8.30;99.90;;;;;;5005986;28;20466;-48
2022/03/07 10:33:39;;;;;;;8.40;6.63;;;7.80;99.90;;;;;;5004455;28;20482;-50
2022/03/07 10:36:07;;;;;;;10.57;8.47;;;8.00;99.90;;;;;;5014448;28;20511;-49
2022/03/07 10:38:34;;;;;;;8.97;8.10;;;8.00;99.90;;;;;;4999586;28;20472;-49
2022/03/07 10:41:00;;;;;;;7.17;6.57;;;7.90;99.90;;;;;;4999098;28;20531;-50
2022/03/07 10:43:28;;;;;;;8.27;7.47;;;8.00;99.90;;;;;;4995244;28;20488;-49
2022/03/07 10:45:56;;;;;;;8.07;7.27;;;9.50;99.90;;;;;;5001858;28;20473;-48
2022/03/07 10:48:25;;;;;;;7.20;6.07;;;9.40;99.90;;;;;;5008379;28;20866;-49
2022/03/07 10:50:54;;;;;;;7.23;6.63;;;8.50;99.90;;;;;;4995246;28;20476;-49
2022/03/07 10:53:22;;;;;;;8.53;6.67;;;9.20;99.90;;;;;;4996700;28;20480;-49
2022/03/07 10:55:53;;;;;;;9.20;8.27;;;10.00;99.90;;;;;;5001570;28;20988;-49
2022/03/07 10:58:21;;;;;;;6.80;6.17;;;10.60;99.90;;;;;;5004471;28;20474;-49
2022/03/07 11:00:49;;;;;;;5.93;5.50;;;10.30;99.90;;;;;;4994977;28;20535;-48
2022/03/07 11:03:17;;;;;;;8.37;6.70;;;10.20;99.90;;;;;;4994469;28;20460;-48
2022/03/07 11:05:45;;;;;;;12.60;8.20;;;9.40;99.90;;;;;;5012331;28;20522;-49
2022/03/07 11:08:11;;;;;;;7.43;6.73;;;9.20;99.90;;;;;;5012639;28;21051;-49
2022/03/07 11:10:44;;;;;;;6.90;6.20;;;9.20;99.90;;;;;;5013068;28;21008;-49
2022/03/07 11:13:12;;;;;;;6.10;5.13;;;8.90;99.90;;;;;;4995084;28;20480;-49
2022/03/07 11:15:39;;;;;;;6.17;5.57;;;8.50;99.90;;;;;;4996119;28;20496;-49
2022/03/07 11:18:06;;;;;;;5.30;4.83;;;8.60;99.90;;;;;;5013633;28;20486;-49
2022/03/07 11:20:34;;;;;;;9.70;4.70;;;8.90;99.90;;;;;;5012729;28;20887;-49
2022/03/07 11:23:01;;;;;;;4.23;3.83;;;8.70;99.90;;;;;;5013321;28;20984;-49
2022/03/07 11:25:28;;;;;;;4.47;4.07;;;8.60;99.90;;;;;;5012904;28;20823;-48
2022/03/07 11:27:57;;;;;;;4.77;4.37;;;8.70;99.90;;;;;;5011405;28;20553;-48
2022/03/07 11:30:25;;;;;;;5.17;4.13;;;8.90;99.90;;;;;;5012879;28;20479;-48
2022/03/07 11:32:53;;;;;;;5.37;4.90;;;8.60;99.90;;;;;;4997191;28;20511;-49
2022/03/07 11:35:20;;;;;;;6.20;4.40;;;8.70;99.90;;;;;;4995719;28;20913;-49
2022/03/07 11:37:46;;;;;;;8.60;3.70;;;9.60;99.90;;;;;;5000791;28;20455;-50
2022/03/07 11:40:19;;;;;;;3.77;3.47;;;9.70;99.90;;;;;;5011066;28;21007;-49
2022/03/07 11:42:46;;;;;;;3.73;3.43;;;9.50;99.90;;;;;;5005114;28;20441;-49
2022/03/07 11:45:21;;;;;;;4.60;3.80;;;9.40;99.90;;;;;;4993252;28;20560;-50
2022/03/07 11:47:49;;;;;;;5.23;4.10;;;9.10;99.90;;;;;;4994415;28;20570;-48
2022/03/07 11:50:18;;;;;;;5.23;4.37;;;9.10;99.90;;;;;;5008575;28;20462;-49
2022/03/07 11:52:45;;;;;;;4.70;4.40;;;9.20;99.90;;;;;;5013753;28;20464;-49
2022/03/07 11:55:16;;;;;;;4.47;4.07;;;9.30;99.90;;;;;;5010765;28;20499;-49
2022/03/07 11:57:45;;;;;;;5.50;3.80;;;8.90;99.90;;;;;;4996658;28;20491;-50
2022/03/07 12:00:18;;;;;;;3.70;2.87;;;9.10;99.90;;;;;;5009516;28;20535;-49
2022/03/07 12:02:46;;;;;;;5.23;3.70;;;9.50;99.90;;;;;;4999273;28;21030;-51
2022/03/07 12:05:21;;;;;;;3.83;3.60;;;9.60;99.90;;;;;;4993358;28;20556;-51
2022/03/07 12:07:47;;;;;;;5.00;3.23;;;9.20;99.90;;;;;;4992952;28;21075;-52
2022/03/07 12:10:14;;;;;;;3.77;3.30;;;9.20;99.90;;;;;;4996682;28;20556;-51
2022/03/07 12:12:41;;;;;;;6.03;4.27;;;9.50;99.90;;;;;;5010930;28;20905;-52
2022/03/07 12:15:09;;;;;;;4.30;4.00;;;9.70;99.90;;;;;;5012257;28;20486;-52
2022/03/07 12:17:37;;;;;;;4.67;4.20;;;9.70;99.90;;;;;;5001276;28;20480;-52
2022/03/07 12:20:05;;;;;;;2.93;2.80;;;9.80;99.90;;;;;;5012552;28;20479;-52
2022/03/07 12:22:34;;;;;;;4.40;3.40;;;9.70;99.90;;;;;;5004315;28;20540;-52
2022/03/07 12:25:03;;;;;;;3.40;3.10;;;10.10;99.90;;;;;;4996375;28;20531;-52
2022/03/07 12:27:33;;;;;;;5.80;3.40;;;9.90;99.90;;;;;;5000371;28;20481;-52
2022/03/07 12:30:00;;;;;;;4.03;3.63;;;9.90;99.90;;;;;;4998037;28;20461;-52
2022/03/07 12:32:26;;;;;;;4.27;3.87;;;9.80;99.90;;;;;;5001111;28;20480;-52
2022/03/07 12:34:55;;;;;;;2.90;2.70;;;10.00;99.90;;;;;;4997419;28;20620;-52
2022/03/07 12:37:22;;;;;;;3.00;2.80;;;10.30;99.90;;;;;;4993332;28;20820;-52
2022/03/07 12:39:52;;;;;;;3.40;3.10;;;10.40;99.90;;;;;;5011276;28;20452;-51
2022/03/07 12:42:20;;;;;;;4.50;2.90;;;10.10;99.90;;;;;;5005933;28;20444;-51
2022/03/07 12:44:47;;;;;;;2.43;2.30;;;10.20;99.90;;;;;;4992670;28;20546;-51
2022/03/07 12:47:14;;;;;;;2.30;2.10;;;10.10;99.90;;;;;;4992792;28;20489;-51